Time;durP1;ratioP1;P1;durP2;ratioP2;P2;SDS_P1;SDS_P2;PMS_P1;PMS_P2;Temp;Humidity;BMP_temperature;BMP_pressure;BME280_temperature;BME280_humidity;BME280_pressure;Samples;Min_cycle;Max_cycle;Signal;HPM_P1;HPM_P2
2023/12/10 00:00:56;;;;;;;17.33;4.20;;;;;;;;;;5072669;28;20540;-85
2023/12/10 00:03:22;;;;;;;26.30;5.20;;;;;;;;;;5076062;28;20448;-87
2023/12/10 00:05:50;;;;;;;31.33;5.60;;;;;;;;;;5074351;28;20452;-85
2023/12/10 00:08:17;;;;;;;27.10;4.70;;;;;;;;;;5078111;28;20462;-85
2023/12/10 00:10:43;;;;;;;29.57;5.77;;;;;;;;;;5077734;28;20460;-86
2023/12/10 00:13:10;;;;;;;19.87;4.43;;;;;;;;;;5077993;28;20455;-85
2023/12/10 00:15:37;;;;;;;23.30;7.10;;;;;;;;;;5074858;28;21112;-86
2023/12/10 00:18:03;;;;;;;18.57;4.40;;;;;;;;;;5077329;28;21006;-85
2023/12/10 00:20:30;;;;;;;36.53;6.50;;;;;;;;;;5078283;28;20490;-86
2023/12/10 00:22:58;;;;;;;30.57;4.93;;;;;;;;;;5080934;28;20466;-85
2023/12/10 00:25:26;;;;;;;35.00;6.60;;;;;;;;;;5077344;28;20513;-85
2023/12/10 00:27:52;;;;;;;33.27;7.17;;;;;;;;;;5078803;28;20523;-86
2023/12/10 00:30:19;;;;;;;21.67;5.20;;;;;;;;;;5078433;28;20460;-86
2023/12/10 00:32:45;;;;;;;23.60;6.00;;;;;;;;;;5074857;28;20460;-86
2023/12/10 00:35:12;;;;;;;33.17;5.67;;;;;;;;;;5079320;28;20505;-85
2023/12/10 00:37:38;;;;;;;28.30;5.67;;;;;;;;;;5080403;28;20510;-87
2023/12/10 00:40:08;;;;;;;26.47;4.37;;;;;;;;;;5079190;28;20452;-84
2023/12/10 00:42:35;;;;;;;20.93;6.00;;;;;;;;;;5074579;28;20463;-83
2023/12/10 00:45:01;;;;;;;24.17;5.17;;;;;;;;;;5079039;28;20956;-85
2023/12/10 00:47:28;;;;;;;26.63;5.07;;;;;;;;;;5070528;28;20456;-86
2023/12/10 00:49:54;;;;;;;23.90;4.23;;;;;;;;;;5073376;28;20447;-86
2023/12/10 00:52:21;;;;;;;31.40;5.23;;;;;;;;;;5074401;28;20452;-87
2023/12/10 00:54:47;;;;;;;24.47;5.53;;;;;;;;;;5079275;28;20448;-86
2023/12/10 00:57:15;;;;;;;26.50;5.37;;;;;;;;;;5078103;28;20488;-86
2023/12/10 00:59:42;;;;;;;25.67;4.63;;;;;;;;;;5077311;28;20456;-86
2023/12/10 01:02:08;;;;;;;23.00;5.63;;;;;;;;;;5075526;28;20448;-87
2023/12/10 01:04:35;;;;;;;21.50;6.43;;;;;;;;;;5073445;28;20456;-86
2023/12/10 01:07:02;;;;;;;28.63;5.10;;;;;;;;;;5073287;28;20452;-86
2023/12/10 01:09:28;;;;;;;19.80;4.30;;;;;;;;;;5069304;28;20453;-85
2023/12/10 01:11:55;;;;;;;19.17;5.37;;;;;;;;;;5072307;28;21290;-86
2023/12/10 01:14:23;;;;;;;26.03;5.73;;;;;;;;;;5074424;28;20487;-85
2023/12/10 01:16:49;;;;;;;26.90;6.63;;;;;;;;;;5071571;28;20502;-85
2023/12/10 01:19:16;;;;;;;33.43;6.33;;;;;;;;;;5077093;28;20487;-85
2023/12/10 01:21:42;;;;;;;30.97;5.53;;;;;;;;;;5078874;28;21307;-86
2023/12/10 01:24:15;;;;;;;29.30;5.83;;;;;;;;;;5079027;28;20455;-86
2023/12/10 01:26:41;;;;;;;21.27;5.47;;;;;;;;;;5077651;28;20459;-87
2023/12/10 01:29:08;;;;;;;30.73;6.20;;;;;;;;;;5077188;28;20513;-87
2023/12/10 01:31:36;;;;;;;20.77;4.70;;;;;;;;;;5075822;28;20452;-83
2023/12/10 01:34:03;;;;;;;23.30;5.10;;;;;;;;;;5070438;28;20530;-85
2023/12/10 01:36:30;;;;;;;29.63;6.23;;;;;;;;;;5075428;28;20492;-86
2023/12/10 01:38:56;;;;;;;31.57;6.00;;;;;;;;;;5075899;28;20621;-85
2023/12/10 01:41:25;;;;;;;22.53;6.57;;;;;;;;;;5075463;28;20452;-86
2023/12/10 01:43:52;;;;;;;23.20;5.53;;;;;;;;;;5072018;28;20560;-85
2023/12/10 01:46:18;;;;;;;28.13;6.73;;;;;;;;;;5077775;28;20448;-85
2023/12/10 01:48:49;;;;;;;36.10;6.90;;;;;;;;;;5075904;28;20456;-86
2023/12/10 01:51:16;;;;;;;33.37;6.43;;;;;;;;;;5072417;28;20459;-86
2023/12/10 01:53:43;;;;;;;25.87;5.83;;;;;;;;;;5077154;28;20463;-85
2023/12/10 01:56:10;;;;;;;24.63;5.50;;;;;;;;;;5076119;28;21187;-85
2023/12/10 01:58:36;;;;;;;18.97;5.47;;;;;;;;;;5074468;28;20540;-89
2023/12/10 02:01:05;;;;;;;19.70;4.90;;;;;;;;;;5075738;28;20468;-85
2023/12/10 02:03:32;;;;;;;21.33;5.53;;;;;;;;;;5075647;28;20491;-84
2023/12/10 02:06:00;;;;;;;17.70;4.30;;;;;;;;;;5075610;28;20455;-87
2023/12/10 02:08:27;;;;;;;26.00;7.63;;;;;;;;;;5076982;28;20498;-85
2023/12/10 02:10:53;;;;;;;26.87;5.83;;;;;;;;;;5078063;28;20506;-82
2023/12/10 02:13:20;;;;;;;22.60;5.70;;;;;;;;;;5072950;28;20483;-86
2023/12/10 02:15:47;;;;;;;25.00;5.87;;;;;;;;;;5066371;28;20563;-86
2023/12/10 02:18:17;;;;;;;18.40;5.30;;;;;;;;;;5078580;28;20496;-87
2023/12/10 02:20:43;;;;;;;37.70;6.00;;;;;;;;;;5078811;28;20990;-86
2023/12/10 02:23:13;;;;;;;31.37;6.30;;;;;;;;;;5075411;28;20471;-84
2023/12/10 02:25:41;;;;;;;23.70;6.30;;;;;;;;;;5076364;28;20444;-87
2023/12/10 02:28:08;;;;;;;19.90;5.47;;;;;;;;;;5078301;28;20452;-86
2023/12/10 02:30:35;;;;;;;21.87;5.30;;;;;;;;;;5071529;28;20453;-86
2023/12/10 02:33:01;;;;;;;16.60;4.80;;;;;;;;;;5071123;28;20517;-88
2023/12/10 02:35:28;;;;;;;21.57;4.60;;;;;;;;;;5078332;28;20448;-86
2023/12/10 02:37:55;;;;;;;23.17;6.53;;;;;;;;;;5074949;28;20491;-85
2023/12/10 02:40:21;;;;;;;16.03;5.30;;;;;;;;;;5078758;28;20444;-86
2023/12/10 02:42:49;;;;;;;20.83;5.60;;;;;;;;;;5076105;28;20464;-86
2023/12/10 02:45:16;;;;;;;20.83;5.70;;;;;;;;;;5075586;28;20444;-86
2023/12/10 02:47:42;;;;;;;26.57;5.50;;;;;;;;;;5071047;28;20683;-85
2023/12/10 02:50:09;;;;;;;23.93;4.73;;;;;;;;;;5070745;28;20475;-87
2023/12/10 02:52:36;;;;;;;13.07;4.63;;;;;;;;;;5074967;28;20452;-86
2023/12/10 02:55:03;;;;;;;13.30;4.40;;;;;;;;;;5073882;28;20463;-84
2023/12/10 02:57:29;;;;;;;19.07;5.40;;;;;;;;;;5073935;28;20559;-85
2023/12/10 02:59:57;;;;;;;31.90;5.63;;;;;;;;;;5074456;28;20531;-84
2023/12/10 03:02:23;;;;;;;18.43;4.57;;;;;;;;;;5070761;28;20804;-87
2023/12/10 03:04:50;;;;;;;23.97;5.10;;;;;;;;;;5073266;28;20482;-85
2023/12/10 03:07:16;;;;;;;25.57;5.07;;;;;;;;;;5079415;28;20456;-85
2023/12/10 03:09:44;;;;;;;27.70;5.70;;;;;;;;;;5076490;28;20930;-85
2023/12/10 03:12:10;;;;;;;25.87;5.40;;;;;;;;;;5079557;28;20543;-86
2023/12/10 03:14:37;;;;;;;19.30;4.80;;;;;;;;;;5079988;28;20479;-85
2023/12/10 03:17:05;;;;;;;21.60;4.50;;;;;;;;;;5078973;28;20484;-86
2023/12/10 03:19:32;;;;;;;15.30;5.43;;;;;;;;;;5081438;28;20452;-86
2023/12/10 03:21:58;;;;;;;16.23;4.10;;;;;;;;;;5079728;28;20463;-83
2023/12/10 03:24:25;;;;;;;17.83;6.50;;;;;;;;;;5079423;28;20482;-86
2023/12/10 03:26:51;;;;;;;17.63;5.07;;;;;;;;;;5079468;28;20490;-86
2023/12/10 03:29:18;;;;;;;16.93;4.20;;;;;;;;;;5081295;28;20448;-85
2023/12/10 03:31:44;;;;;;;20.80;5.27;;;;;;;;;;5080476;28;20466;-86
2023/12/10 03:34:12;;;;;;;16.10;4.87;;;;;;;;;;5077689;28;20456;-83
2023/12/10 03:36:39;;;;;;;19.23;4.20;;;;;;;;;;5079044;28;20483;-86
2023/12/10 03:39:05;;;;;;;18.30;5.23;;;;;;;;;;5080132;28;20451;-84
2023/12/10 03:41:32;;;;;;;19.30;4.80;;;;;;;;;;5077798;28;20464;-85
2023/12/10 03:43:59;;;;;;;13.53;4.60;;;;;;;;;;5078801;28;20827;-84
2023/12/10 03:46:25;;;;;;;19.93;5.37;;;;;;;;;;5075258;28;20452;-84
2023/12/10 03:48:52;;;;;;;14.57;4.97;;;;;;;;;;5074805;28;20456;-86
2023/12/10 03:51:20;;;;;;;17.50;4.20;;;;;;;;;;5075088;28;20486;-84
2023/12/10 03:53:46;;;;;;;17.27;4.60;;;;;;;;;;5077218;28;20444;-85
2023/12/10 03:56:13;;;;;;;22.33;4.37;;;;;;;;;;5075071;28;20467;-85
2023/12/10 03:58:39;;;;;;;20.23;4.90;;;;;;;;;;5075711;28;20513;-85
2023/12/10 04:01:06;;;;;;;13.77;4.50;;;;;;;;;;5073704;28;20452;-83
2023/12/10 04:03:33;;;;;;;15.83;4.30;;;;;;;;;;5079179;28;20503;-85
2023/12/10 04:06:01;;;;;;;13.70;4.20;;;;;;;;;;5076535;28;20464;-84
2023/12/10 04:08:29;;;;;;;16.97;4.53;;;;;;;;;;5074720;28;20460;-84
2023/12/10 04:10:55;;;;;;;13.40;4.23;;;;;;;;;;5075848;28;20452;-83
2023/12/10 04:13:22;;;;;;;18.77;4.83;;;;;;;;;;5074929;28;20529;-84
2023/12/10 04:15:48;;;;;;;15.97;4.53;;;;;;;;;;5075672;28;20494;-87
2023/12/10 04:18:15;;;;;;;18.90;4.27;;;;;;;;;;5076535;28;20491;-84
2023/12/10 04:20:42;;;;;;;11.03;4.23;;;;;;;;;;5079753;28;20458;-85
2023/12/10 04:23:09;;;;;;;15.20;4.33;;;;;;;;;;5078264;28;20444;-82
2023/12/10 04:25:36;;;;;;;16.60;4.90;;;;;;;;;;5079011;28;20799;-84
2023/12/10 04:28:04;;;;;;;17.73;4.50;;;;;;;;;;5073877;28;20481;-84
2023/12/10 04:30:31;;;;;;;21.73;4.20;;;;;;;;;;5075690;28;20441;-84
2023/12/10 04:32:57;;;;;;;16.00;4.80;;;;;;;;;;5077705;28;20530;-83
2023/12/10 04:35:24;;;;;;;8.87;4.17;;;;;;;;;;5078845;28;20816;-84
2023/12/10 04:37:51;;;;;;;10.90;3.17;;;;;;;;;;5073005;28;20488;-87
2023/12/10 04:40:17;;;;;;;16.80;4.27;;;;;;;;;;5074374;28;20481;-85
2023/12/10 04:42:45;;;;;;;15.50;4.47;;;;;;;;;;5075844;28;20994;-85
2023/12/10 04:45:11;;;;;;;17.27;4.17;;;;;;;;;;5074445;28;20527;-81
2023/12/10 04:47:38;;;;;;;10.07;3.00;;;;;;;;;;5071413;28;20460;-86
2023/12/10 04:50:05;;;;;;;18.23;3.23;;;;;;;;;;5071428;28;20436;-87
2023/12/10 04:52:31;;;;;;;9.33;2.47;;;;;;;;;;5079441;28;20452;-84
2023/12/10 04:54:58;;;;;;;9.27;3.37;;;;;;;;;;5077297;28;20444;-85
2023/12/10 04:57:25;;;;;;;8.40;3.50;;;;;;;;;;5075039;28;20492;-84
2023/12/10 04:59:52;;;;;;;7.93;2.67;;;;;;;;;;5069917;28;20474;-85
2023/12/10 05:02:19;;;;;;;18.30;3.70;;;;;;;;;;5071912;28;20579;-85
2023/12/10 05:04:45;;;;;;;9.97;3.43;;;;;;;;;;5074666;28;20517;-84
2023/12/10 05:07:12;;;;;;;11.60;3.60;;;;;;;;;;5075472;28;20452;-84
2023/12/10 05:09:38;;;;;;;15.63;3.70;;;;;;;;;;5071069;28;20899;-86
2023/12/10 05:12:05;;;;;;;9.77;3.00;;;;;;;;;;5077803;28;20487;-85
2023/12/10 05:14:32;;;;;;;13.53;3.33;;;;;;;;;;5079451;28;20522;-84
2023/12/10 05:17:00;;;;;;;12.20;3.47;;;;;;;;;;5076390;28;20494;-84
2023/12/10 05:19:26;;;;;;;8.57;3.33;;;;;;;;;;5075377;28;20486;-84
2023/12/10 05:21:53;;;;;;;12.40;3.00;;;;;;;;;;5067581;28;20455;-86
2023/12/10 05:24:19;;;;;;;15.93;3.80;;;;;;;;;;5076489;28;20965;-82
2023/12/10 05:26:46;;;;;;;15.47;3.60;;;;;;;;;;5072396;28;20441;-86
2023/12/10 05:29:12;;;;;;;10.77;3.97;;;;;;;;;;5073900;28;20447;-83
2023/12/10 05:31:39;;;;;;;7.80;3.43;;;;;;;;;;5075255;28;20435;-86
2023/12/10 05:34:07;;;;;;;11.40;3.83;;;;;;;;;;5073480;28;20451;-83
2023/12/10 05:36:33;;;;;;;6.70;3.00;;;;;;;;;;5077329;28;20956;-86
2023/12/10 05:39:00;;;;;;;18.47;4.03;;;;;;;;;;5077889;28;20499;-83
2023/12/10 05:41:26;;;;;;;17.70;3.20;;;;;;;;;;5078017;28;20440;-84
2023/12/10 05:43:52;;;;;;;14.77;3.43;;;;;;;;;;5075926;28;20463;-86
2023/12/10 05:46:19;;;;;;;10.10;3.83;;;;;;;;;;5071995;28;20436;-84
2023/12/10 05:48:46;;;;;;;12.33;3.57;;;;;;;;;;5071014;28;20887;-84
2023/12/10 05:51:14;;;;;;;11.03;3.53;;;;;;;;;;5077785;28;20456;-84
2023/12/10 05:53:40;;;;;;;13.10;3.73;;;;;;;;;;5078586;28;20521;-84
2023/12/10 05:56:07;;;;;;;13.13;3.33;;;;;;;;;;5075483;28;20514;-82
2023/12/10 05:58:34;;;;;;;11.37;3.77;;;;;;;;;;5066649;28;20491;-84
2023/12/10 06:01:01;;;;;;;17.73;3.83;;;;;;;;;;5073589;28;21265;-85
2023/12/10 06:03:28;;;;;;;15.23;4.57;;;;;;;;;;5072712;28;20511;-86
2023/12/10 06:05:54;;;;;;;13.27;4.93;;;;;;;;;;5071012;28;20452;-84
2023/12/10 06:08:23;;;;;;;17.23;3.80;;;;;;;;;;5076835;28;20456;-84
2023/12/10 06:10:49;;;;;;;15.33;4.40;;;;;;;;;;5075280;28;20436;-84
2023/12/10 06:13:15;;;;;;;10.23;3.70;;;;;;;;;;5072008;28;21236;-85
2023/12/10 06:15:42;;;;;;;13.10;3.70;;;;;;;;;;5071420;28;20481;-85
2023/12/10 06:18:09;;;;;;;16.60;4.20;;;;;;;;;;5067755;28;20487;-87
2023/12/10 06:20:35;;;;;;;16.63;4.40;;;;;;;;;;5068267;28;20514;-86
2023/12/10 06:23:02;;;;;;;20.53;4.30;;;;;;;;;;5067133;28;20509;-86
2023/12/10 06:25:30;;;;;;;13.27;4.07;;;;;;;;;;5076231;28;20480;-82
2023/12/10 06:27:57;;;;;;;16.43;4.80;;;;;;;;;;5077496;28;20448;-85
2023/12/10 06:30:24;;;;;;;16.77;4.70;;;;;;;;;;5076011;28;20455;-85
2023/12/10 06:32:50;;;;;;;14.97;4.33;;;;;;;;;;5071721;28;20505;-86
2023/12/10 06:35:17;;;;;;;11.07;4.60;;;;;;;;;;5075320;28;20529;-87
2023/12/10 06:37:44;;;;;;;19.40;4.40;;;;;;;;;;5075088;28;20496;-85
2023/12/10 06:40:11;;;;;;;16.63;3.60;;;;;;;;;;5079922;28;20486;-84
2023/12/10 06:42:39;;;;;;;11.83;2.80;;;;;;;;;;5083931;28;20512;-85
2023/12/10 06:45:07;;;;;;;13.20;6.20;;;;;;;;;;5080276;28;20887;-85
2023/12/10 06:47:33;;;;;;;15.70;3.47;;;;;;;;;;5083845;28;20455;-86
2023/12/10 06:50:00;;;;;;;11.13;3.30;;;;;;;;;;5086034;28;20497;-84
2023/12/10 06:52:27;;;;;;;9.93;3.50;;;;;;;;;;5084906;28;20451;-84
2023/12/10 06:54:53;;;;;;;8.67;2.50;;;;;;;;;;5085331;28;20516;-85
2023/12/10 06:57:19;;;;;;;10.00;2.83;;;;;;;;;;5081568;28;20459;-83
2023/12/10 06:59:47;;;;;;;7.73;3.03;;;;;;;;;;5080639;28;20490;-83
2023/12/10 07:02:14;;;;;;;9.03;3.23;;;;;;;;;;5076881;28;20452;-83
2023/12/10 07:04:40;;;;;;;10.50;3.40;;;;;;;;;;5083712;28;20461;-84
2023/12/10 07:07:07;;;;;;;16.00;3.90;;;;;;;;;;5082815;28;20440;-81
2023/12/10 07:09:33;;;;;;;12.30;3.60;;;;;;;;;;5082694;28;20482;-82
2023/12/10 07:12:00;;;;;;;14.10;3.60;;;;;;;;;;5077711;28;20455;-82
2023/12/10 07:14:26;;;;;;;11.87;2.90;;;;;;;;;;5082710;28;20487;-84
2023/12/10 07:16:54;;;;;;;22.07;4.00;;;;;;;;;;5084865;28;20870;-82
2023/12/10 07:19:20;;;;;;;10.90;2.87;;;;;;;;;;5084376;28;20483;-84
2023/12/10 07:21:48;;;;;;;17.87;3.73;;;;;;;;;;5084486;28;20497;-82
2023/12/10 07:24:15;;;;;;;15.37;3.40;;;;;;;;;;5081833;28;20463;-83
2023/12/10 07:26:41;;;;;;;10.23;2.80;;;;;;;;;;5080335;28;20454;-82
2023/12/10 07:29:08;;;;;;;15.90;3.50;;;;;;;;;;5084667;28;20468;-82
2023/12/10 07:31:34;;;;;;;18.17;3.67;;;;;;;;;;5076482;28;20457;-85
2023/12/10 07:34:02;;;;;;;16.40;3.43;;;;;;;;;;5077083;28;20459;-84
2023/12/10 07:36:29;;;;;;;8.57;3.33;;;;;;;;;;5081918;28;20453;-85
2023/12/10 07:38:55;;;;;;;11.50;3.40;;;;;;;;;;5076713;28;20889;-84
2023/12/10 07:41:22;;;;;;;14.63;3.00;;;;;;;;;;5084509;28;20506;-83
2023/12/10 07:43:48;;;;;;;11.23;3.40;;;;;;;;;;5083810;28;20513;-86
2023/12/10 07:46:15;;;;;;;10.10;3.40;;;;;;;;;;5074561;28;20942;-85
2023/12/10 07:48:41;;;;;;;16.87;3.70;;;;;;;;;;5083961;28;20525;-84
2023/12/10 07:51:09;;;;;;;18.50;4.80;;;;;;;;;;5077091;28;20467;-83
2023/12/10 07:53:35;;;;;;;10.47;3.33;;;;;;;;;;5080184;28;20472;-82
2023/12/10 07:56:02;;;;;;;13.33;3.33;;;;;;;;;;5080057;28;20474;-84
2023/12/10 07:58:28;;;;;;;11.40;3.37;;;;;;;;;;5081106;28;20518;-83
2023/12/10 08:00:55;;;;;;;13.53;3.60;;;;;;;;;;5078615;28;20486;-82
2023/12/10 08:03:21;;;;;;;13.37;4.53;;;;;;;;;;5074216;28;20465;-82
2023/12/10 08:05:48;;;;;;;14.03;3.97;;;;;;;;;;5073639;28;21011;-84
2023/12/10 08:08:16;;;;;;;18.77;4.73;;;;;;;;;;5071247;28;20526;-85
2023/12/10 08:10:42;;;;;;;13.00;4.30;;;;;;;;;;5070775;28;20452;-84
2023/12/10 08:13:09;;;;;;;8.17;3.37;;;;;;;;;;5069118;28;20463;-84
2023/12/10 08:15:35;;;;;;;18.43;4.73;;;;;;;;;;5076256;28;20476;-84
2023/12/10 08:18:02;;;;;;;16.87;4.13;;;;;;;;;;5075673;28;20491;-84
2023/12/10 08:20:29;;;;;;;12.77;3.87;;;;;;;;;;5074948;28;20515;-83
2023/12/10 08:22:55;;;;;;;12.30;3.47;;;;;;;;;;5074965;28;20453;-83
2023/12/10 08:25:23;;;;;;;12.17;3.50;;;;;;;;;;5079734;28;20456;-81
2023/12/10 08:27:50;;;;;;;17.37;3.77;;;;;;;;;;5079762;28;20452;-83
2023/12/10 08:30:16;;;;;;;9.03;3.97;;;;;;;;;;5080393;28;21191;-82
2023/12/10 08:32:43;;;;;;;14.07;3.20;;;;;;;;;;5079483;28;20482;-83
2023/12/10 08:35:09;;;;;;;9.90;2.50;;;;;;;;;;5079893;28;21025;-83
2023/12/10 08:37:36;;;;;;;18.47;3.60;;;;;;;;;;5079815;28;20474;-85
2023/12/10 08:40:03;;;;;;;22.63;4.20;;;;;;;;;;5073016;28;20487;-86
2023/12/10 08:42:31;;;;;;;11.97;3.90;;;;;;;;;;5080005;28;20460;-83
2023/12/10 08:44:58;;;;;;;16.43;3.80;;;;;;;;;;5078298;28;20456;-84
2023/12/10 08:47:24;;;;;;;13.17;3.20;;;;;;;;;;5079282;28;20452;-83
2023/12/10 08:49:51;;;;;;;16.07;4.50;;;;;;;;;;5074529;28;20849;-83
2023/12/10 08:52:17;;;;;;;13.83;3.83;;;;;;;;;;5076492;28;20518;-85
2023/12/10 08:54:44;;;;;;;17.90;4.57;;;;;;;;;;5076235;28;20452;-83
2023/12/10 08:57:10;;;;;;;11.40;3.33;;;;;;;;;;5075029;28;20964;-83
2023/12/10 08:59:38;;;;;;;18.90;4.30;;;;;;;;;;5078112;28;20951;-85
2023/12/10 09:02:05;;;;;;;10.30;3.30;;;;;;;;;;5069003;28;20457;-84
2023/12/10 09:04:32;;;;;;;14.23;3.73;;;;;;;;;;5074302;28;20851;-83
2023/12/10 09:06:59;;;;;;;9.40;2.87;;;;;;;;;;5075427;28;20478;-84
2023/12/10 09:09:25;;;;;;;18.63;3.87;;;;;;;;;;5072120;28;20547;-85
2023/12/10 09:11:51;;;;;;;13.07;3.57;;;;;;;;;;5070573;28;20871;-82
2023/12/10 09:14:18;;;;;;;25.30;4.53;;;;;;;;;;5074972;28;20557;-85
2023/12/10 09:16:47;;;;;;;17.53;4.33;;;;;;;;;;5070366;28;20466;-83
2023/12/10 09:19:14;;;;;;;17.70;3.33;;;;;;;;;;5074759;28;21660;-82
2023/12/10 09:21:41;;;;;;;16.97;4.53;;;;;;;;;;5075360;28;20478;-83
2023/12/10 09:24:07;;;;;;;20.70;4.83;;;;;;;;;;5067412;28;20523;-82
2023/12/10 09:26:34;;;;;;;15.70;4.43;;;;;;;;;;5076088;28;20440;-82
2023/12/10 09:29:01;;;;;;;18.47;3.70;;;;;;;;;;5075011;28;20485;-82
2023/12/10 09:31:29;;;;;;;14.57;3.40;;;;;;;;;;5077100;28;20516;-85
2023/12/10 09:33:57;;;;;;;18.80;4.70;;;;;;;;;;5070344;28;20518;-82
2023/12/10 09:36:23;;;;;;;15.07;4.03;;;;;;;;;;5073982;28;20915;-84
2023/12/10 09:38:50;;;;;;;17.30;4.00;;;;;;;;;;5076619;28;21001;-81
2023/12/10 09:41:16;;;;;;;15.67;4.53;;;;;;;;;;5077225;28;20521;-83
2023/12/10 09:43:42;;;;;;;14.60;3.70;;;;;;;;;;5075587;28;20456;-83
2023/12/10 09:46:09;;;;;;;15.70;3.50;;;;;;;;;;5076515;28;20448;-82
2023/12/10 09:48:37;;;;;;;19.43;4.30;;;;;;;;;;5071642;28;20456;-83
2023/12/10 09:51:05;;;;;;;13.00;3.30;;;;;;;;;;5072424;28;21114;-82
2023/12/10 09:53:32;;;;;;;12.93;4.10;;;;;;;;;;5071548;28;20463;-83
2023/12/10 09:55:58;;;;;;;12.80;3.83;;;;;;;;;;5075422;28;20482;-82
2023/12/10 09:58:25;;;;;;;17.23;2.93;;;;;;;;;;5075358;28;20505;-81
2023/12/10 10:00:51;;;;;;;25.27;4.87;;;;;;;;;;5077270;28;20472;-83
2023/12/10 10:03:18;;;;;;;16.07;4.03;;;;;;;;;;5071138;28;21005;-83
2023/12/10 10:05:44;;;;;;;18.73;5.70;;;;;;;;;;5067677;28;20456;-81
2023/12/10 10:08:12;;;;;;;19.00;3.43;;;;;;;;;;5066779;28;20460;-81
2023/12/10 10:10:39;;;;;;;11.23;3.30;;;;;;;;;;5066391;28;20445;-84
2023/12/10 10:13:06;;;;;;;11.43;3.77;;;;;;;;;;5067499;28;20468;-83
2023/12/10 10:15:32;;;;;;;15.63;5.60;;;;;;;;;;5070596;28;20488;-84
2023/12/10 10:17:59;;;;;;;16.37;3.80;;;;;;;;;;5068653;28;20456;-85
2023/12/10 10:20:26;;;;;;;19.10;3.87;;;;;;;;;;5067284;28;20484;-83
2023/12/10 10:22:54;;;;;;;14.60;4.33;;;;;;;;;;5075122;28;20475;-82
2023/12/10 10:25:22;;;;;;;18.30;3.47;;;;;;;;;;5067404;28;20468;-85
2023/12/10 10:27:49;;;;;;;12.77;3.10;;;;;;;;;;5072861;28;20551;-84
2023/12/10 10:30:15;;;;;;;14.70;3.77;;;;;;;;;;5069438;28;20485;-83
2023/12/10 10:32:43;;;;;;;13.70;3.93;;;;;;;;;;5072473;28;20456;-82
2023/12/10 10:35:11;;;;;;;14.90;3.40;;;;;;;;;;5069857;28;20448;-82
2023/12/10 10:37:38;;;;;;;16.17;3.80;;;;;;;;;;5072867;28;20544;-82
2023/12/10 10:40:05;;;;;;;16.13;3.40;;;;;;;;;;5076681;28;20966;-83
2023/12/10 10:42:33;;;;;;;16.70;3.60;;;;;;;;;;5076844;28;20460;-83
2023/12/10 10:45:01;;;;;;;11.90;2.83;;;;;;;;;;5070455;28;20468;-82
2023/12/10 10:47:32;;;;;;;19.03;3.70;;;;;;;;;;5068095;28;20448;-85
2023/12/10 10:50:00;;;;;;;8.20;2.90;;;;;;;;;;5075866;28;20493;-86
2023/12/10 10:52:28;;;;;;;11.10;3.87;;;;;;;;;;5073726;28;20448;-84
2023/12/10 10:54:55;;;;;;;16.23;3.77;;;;;;;;;;5072754;28;20513;-86
2023/12/10 10:57:29;;;;;;;6.80;2.87;;;;;;;;;;5074396;28;20522;-83
2023/12/10 10:59:57;;;;;;;10.97;3.07;;;;;;;;;;5072342;28;20487;-85
2023/12/10 11:02:23;;;;;;;13.93;3.50;;;;;;;;;;5071378;28;20452;-84
2023/12/10 11:04:50;;;;;;;12.93;2.90;;;;;;;;;;5073003;28;20493;-85
2023/12/10 11:07:19;;;;;;;9.07;3.33;;;;;;;;;;5075896;28;20448;-83
2023/12/10 11:09:55;;;;;;;10.23;3.47;;;;;;;;;;5074713;28;20452;-86
2023/12/10 11:12:37;;;;;;;15.93;3.90;;;;;;;;;;5072213;28;20447;-83
2023/12/10 11:15:05;;;;;;;12.30;3.87;;;;;;;;;;5074406;28;20518;-82
2023/12/10 11:17:32;;;;;;;10.47;2.87;;;;;;;;;;5077348;28;20742;-85
2023/12/10 11:19:58;;;;;;;13.60;3.43;;;;;;;;;;5077389;28;20487;-84
2023/12/10 11:22:25;;;;;;;12.10;3.63;;;;;;;;;;5071108;28;20489;-84
2023/12/10 11:24:51;;;;;;;15.13;5.10;;;;;;;;;;5073507;28;20448;-86
2023/12/10 11:27:18;;;;;;;10.40;4.67;;;;;;;;;;5078102;28;20468;-85
2023/12/10 11:29:44;;;;;;;13.33;4.87;;;;;;;;;;5081198;28;20803;-83
2023/12/10 11:32:12;;;;;;;11.40;3.30;;;;;;;;;;5081362;28;20506;-85
2023/12/10 11:34:39;;;;;;;12.43;4.77;;;;;;;;;;5080742;28;20776;-84
2023/12/10 11:37:05;;;;;;;10.23;3.10;;;;;;;;;;5081327;28;20440;-85
2023/12/10 11:39:32;;;;;;;12.23;3.77;;;;;;;;;;5079248;28;20491;-85
2023/12/10 11:41:59;;;;;;;17.10;3.60;;;;;;;;;;5080470;28;21122;-82
2023/12/10 11:44:25;;;;;;;12.23;3.13;;;;;;;;;;5069943;28;20463;-85
2023/12/10 11:46:52;;;;;;;10.60;3.80;;;;;;;;;;5076465;28;20501;-86
2023/12/10 11:49:20;;;;;;;7.20;3.60;;;;;;;;;;5078369;28;20504;-84
2023/12/10 11:51:47;;;;;;;12.10;3.87;;;;;;;;;;5078043;28;20448;-83
2023/12/10 11:54:14;;;;;;;9.53;4.40;;;;;;;;;;5081251;28;20489;-86
2023/12/10 11:56:42;;;;;;;20.47;4.73;;;;;;;;;;5075385;28;20455;-82
2023/12/10 11:59:10;;;;;;;8.03;3.03;;;;;;;;;;5080887;28;20490;-83
2023/12/10 12:01:37;;;;;;;9.37;3.60;;;;;;;;;;5078391;28;20471;-81
2023/12/10 12:04:04;;;;;;;12.57;3.53;;;;;;;;;;5079508;28;20490;-85
2023/12/10 12:06:39;;;;;;;13.30;3.90;;;;;;;;;;5074012;28;20914;-83
2023/12/10 12:09:05;;;;;;;11.83;3.50;;;;;;;;;;5076186;28;20823;-84
2023/12/10 12:11:32;;;;;;;15.90;4.10;;;;;;;;;;5076598;28;20509;-85
2023/12/10 12:13:58;;;;;;;13.00;4.20;;;;;;;;;;5076345;28;20601;-83
2023/12/10 12:16:25;;;;;;;15.70;5.30;;;;;;;;;;5079620;28;20440;-87
2023/12/10 12:18:52;;;;;;;16.70;4.80;;;;;;;;;;5079121;28;20460;-84
2023/12/10 12:21:18;;;;;;;12.37;3.83;;;;;;;;;;5079420;28;20478;-84
2023/12/10 12:23:47;;;;;;;11.73;4.93;;;;;;;;;;5072507;28;20461;-87
2023/12/10 12:26:14;;;;;;;13.13;5.43;;;;;;;;;;5072235;28;20476;-85
2023/12/10 12:28:40;;;;;;;11.63;5.10;;;;;;;;;;5070310;28;20524;-84
2023/12/10 12:31:06;;;;;;;9.40;4.30;;;;;;;;;;5075522;28;20501;-86
2023/12/10 12:33:33;;;;;;;16.80;6.70;;;;;;;;;;5079871;28;20452;-84
2023/12/10 12:35:59;;;;;;;17.60;5.30;;;;;;;;;;5075577;28;20483;-84
2023/12/10 12:38:26;;;;;;;17.10;4.77;;;;;;;;;;5078161;28;20439;-83
2023/12/10 12:40:54;;;;;;;13.87;5.40;;;;;;;;;;5079654;28;21065;-84
2023/12/10 12:43:20;;;;;;;12.53;3.90;;;;;;;;;;5075890;28;21042;-82
2023/12/10 12:45:47;;;;;;;13.10;4.17;;;;;;;;;;5072129;28;20465;-84
2023/12/10 12:48:13;;;;;;;16.23;4.83;;;;;;;;;;5071607;28;20460;-85
2023/12/10 12:50:40;;;;;;;15.23;4.10;;;;;;;;;;5074030;28;20467;-84
2023/12/10 12:53:07;;;;;;;14.17;4.57;;;;;;;;;;5076033;28;20471;-84
2023/12/10 12:55:33;;;;;;;20.20;4.90;;;;;;;;;;5078525;28;20486;-82
2023/12/10 12:58:01;;;;;;;15.33;4.47;;;;;;;;;;5075688;28;20544;-83
2023/12/10 13:00:28;;;;;;;12.10;4.90;;;;;;;;;;5076580;28;20472;-86
2023/12/10 13:02:56;;;;;;;15.30;4.27;;;;;;;;;;5071260;28;20485;-82
2023/12/10 13:05:22;;;;;;;18.73;4.40;;;;;;;;;;5077725;28;20468;-86
2023/12/10 13:07:49;;;;;;;15.10;4.30;;;;;;;;;;5075387;28;21138;-85
2023/12/10 13:10:15;;;;;;;13.93;4.30;;;;;;;;;;5072573;28;20454;-85
2023/12/10 13:12:42;;;;;;;17.90;6.80;;;;;;;;;;5073498;28;21057;-84
2023/12/10 13:15:11;;;;;;;11.23;4.20;;;;;;;;;;5079383;28;20496;-88
2023/12/10 13:17:37;;;;;;;20.93;4.70;;;;;;;;;;5071241;28;20439;-85
2023/12/10 13:20:04;;;;;;;14.23;5.33;;;;;;;;;;5077064;28;20487;-86
2023/12/10 13:22:31;;;;;;;18.53;4.83;;;;;;;;;;5077496;28;20482;-84
2023/12/10 13:24:59;;;;;;;17.00;3.73;;;;;;;;;;5074602;28;20449;-84
2023/12/10 13:27:25;;;;;;;17.40;4.97;;;;;;;;;;5077864;28;20476;-86
2023/12/10 13:29:52;;;;;;;14.70;4.67;;;;;;;;;;5075710;28;20478;-83
2023/12/10 13:32:20;;;;;;;17.17;5.90;;;;;;;;;;5071859;28;20440;-84
2023/12/10 13:34:46;;;;;;;17.50;4.90;;;;;;;;;;5070747;28;20456;-84
2023/12/10 13:37:13;;;;;;;14.80;5.40;;;;;;;;;;5072577;28;21090;-84
2023/12/10 13:39:39;;;;;;;20.83;5.10;;;;;;;;;;5075371;28;20479;-88
2023/12/10 13:42:06;;;;;;;11.03;4.10;;;;;;;;;;5075596;28;20451;-85
2023/12/10 13:44:32;;;;;;;12.33;4.43;;;;;;;;;;5071562;28;20456;-87
2023/12/10 13:46:59;;;;;;;16.00;4.50;;;;;;;;;;5067258;28;20462;-84
2023/12/10 13:49:27;;;;;;;19.80;5.77;;;;;;;;;;5074217;28;20479;-85
2023/12/10 13:51:53;;;;;;;10.70;6.00;;;;;;;;;;5070620;28;20506;-86
2023/12/10 13:54:20;;;;;;;20.87;7.23;;;;;;;;;;5076197;28;20491;-85
2023/12/10 13:56:46;;;;;;;14.73;5.73;;;;;;;;;;5078193;28;20470;-84
2023/12/10 13:59:13;;;;;;;12.20;5.70;;;;;;;;;;5074382;28;20487;-84
2023/12/10 14:01:39;;;;;;;15.50;6.17;;;;;;;;;;5076457;28;20483;-84
2023/12/10 14:04:06;;;;;;;13.17;4.83;;;;;;;;;;5070732;28;20440;-86
2023/12/10 14:06:34;;;;;;;12.93;6.17;;;;;;;;;;5072375;28;20591;-84
2023/12/10 14:09:01;;;;;;;12.60;4.77;;;;;;;;;;5077751;28;20456;-87
2023/12/10 14:11:27;;;;;;;14.03;4.63;;;;;;;;;;5075829;28;20440;-87
2023/12/10 14:13:54;;;;;;;14.30;6.10;;;;;;;;;;5068729;28;20725;-86
2023/12/10 14:16:20;;;;;;;8.00;5.00;;;;;;;;;;5072633;28;20449;-82
2023/12/10 14:18:48;;;;;;;13.50;5.73;;;;;;;;;;5073873;28;20460;-83
2023/12/10 14:21:15;;;;;;;22.83;7.83;;;;;;;;;;5069538;28;21037;-83
2023/12/10 14:23:43;;;;;;;18.47;7.67;;;;;;;;;;5065480;28;21088;-86
2023/12/10 14:26:09;;;;;;;19.20;7.60;;;;;;;;;;5074324;28;20941;-83
2023/12/10 14:28:36;;;;;;;9.93;6.30;;;;;;;;;;5075397;28;20460;-84